createdAt,value
2022-08-24T00:01:23.295Z,87.56
2022-08-24T00:04:25.790Z,88.55
2022-08-24T00:07:28.221Z,90.11
2022-08-24T00:10:30.095Z,89.99
2022-08-24T00:13:32.452Z,88.06
2022-08-24T00:16:35.542Z,89.87
2022-08-24T00:19:37.325Z,90.60
2022-08-24T00:22:40.165Z,89.45
2022-08-24T00:25:42.851Z,90.25
2022-08-24T00:28:44.609Z,89.30
2022-08-24T00:31:49.172Z,91.07
2022-08-24T00:34:59.072Z,89.74
2022-08-24T00:38:01.175Z,91.53
2022-08-24T00:41:04.332Z,89.69
2022-08-24T00:44:06.950Z,88.99
2022-08-24T00:47:19.213Z,90.46
2022-08-24T00:50:47.857Z,91.06
2022-08-24T00:53:55.495Z,89.74
2022-08-24T00:57:02.595Z,90.84
2022-08-24T01:00:21.453Z,88.85
2022-08-24T01:03:23.475Z,90.54
2022-08-24T01:06:25.925Z,89.83
2022-08-24T01:09:28.135Z,88.03
2022-08-24T01:12:33.811Z,90.31
2022-08-24T01:15:48.387Z,89.23
2022-08-24T01:18:50.310Z,90.15
2022-08-24T01:22:06.021Z,88.23
2022-08-24T01:25:08.966Z,90.19
2022-08-24T01:28:16.621Z,90.22
2022-08-24T01:31:25.313Z,90.80
2022-08-24T01:34:27.415Z,91.70
2022-08-24T01:37:29.883Z,91.08
2022-08-24T01:40:45.274Z,90.09
2022-08-24T01:43:47.385Z,91.98
2022-08-24T01:46:54.903Z,93.11
2022-08-24T01:49:57.083Z,93.56
2022-08-24T01:53:05.290Z,91.89
2022-08-24T01:56:24.582Z,93.92
2022-08-24T01:59:27.114Z,93.64
2022-08-24T02:02:31.693Z,92.66
2022-08-24T02:05:36.419Z,93.20
2022-08-24T02:08:38.576Z,92.70
2022-08-24T02:11:41.665Z,93.54
2022-08-24T02:14:47.550Z,92.49
2022-08-24T02:17:49.657Z,91.90
2022-08-24T02:20:51.763Z,93.65
2022-08-24T02:23:53.492Z,91.49
2022-08-24T02:26:56.709Z,93.28
2022-08-24T02:29:58.492Z,93.91
2022-08-24T02:33:00.767Z,91.78
2022-08-24T02:36:03.178Z,91.33
2022-08-24T02:39:07.077Z,93.46
2022-08-24T02:42:09.124Z,92.47
2022-08-24T02:45:11.386Z,92.75
2022-08-24T02:48:14.394Z,93.12
2022-08-24T02:51:25.053Z,92.36
2022-08-24T02:54:29.626Z,93.98
2022-08-24T02:57:31.972Z,96.28
2022-08-24T03:00:34.042Z,95.06
2022-08-24T03:03:36.073Z,95.80
2022-08-24T03:06:38.025Z,96.21
2022-08-24T03:09:39.826Z,98.16
2022-08-24T03:12:41.950Z,98.14
2022-08-24T03:15:44.607Z,97.53
2022-08-24T03:18:46.333Z,98.49
2022-08-24T03:21:48.849Z,97.83
2022-08-24T03:24:50.595Z,98.07
2022-08-24T03:27:53.475Z,98.68
2022-08-24T03:30:55.416Z,98.80
2022-08-24T03:33:59.027Z,97.59
2022-08-24T03:37:01.258Z,98.25
2022-08-24T03:40:05.063Z,99.06
2022-08-24T03:43:08.809Z,98.21
2022-08-24T03:46:12.026Z,97.80
2022-08-24T03:49:15.643Z,97.68
2022-08-24T03:52:19.695Z,98.96
2022-08-24T03:55:23.939Z,98.00
2022-08-24T03:58:26.151Z,99.33
2022-08-24T04:01:31.116Z,98.66
2022-08-24T04:04:33.581Z,100.00
2022-08-24T04:07:35.457Z,100.00
2022-08-24T04:10:38.362Z,100.00
2022-08-24T04:14:27.579Z,100.00
2022-08-24T04:17:40.767Z,100.00
2022-08-24T04:20:43.613Z,100.00
2022-08-24T04:23:52.350Z,100.00
2022-08-24T04:26:54.653Z,100.00
2022-08-24T04:29:56.586Z,100.00
2022-08-24T04:33:00.274Z,100.00
2022-08-24T04:36:02.933Z,100.00
2022-08-24T04:39:07.681Z,100.00
2022-08-24T04:42:28.859Z,100.00
2022-08-24T04:45:30.822Z,100.00
2022-08-24T04:48:32.808Z,100.00
2022-08-24T04:51:36.793Z,100.00
2022-08-24T04:54:39.356Z,100.00
2022-08-24T04:57:45.008Z,100.00
2022-08-24T05:00:47.171Z,100.00
2022-08-24T05:03:51.222Z,100.00
2022-08-24T05:06:54.343Z,100.00
2022-08-24T05:09:56.672Z,100.00
2022-08-24T05:13:00.990Z,100.00
2022-08-24T05:16:07.096Z,100.00
2022-08-24T05:19:08.867Z,100.00
2022-08-24T05:22:10.669Z,100.00
2022-08-24T05:25:17.803Z,99.64
2022-08-24T05:28:20.372Z,100.00
2022-08-24T05:31:24.396Z,100.00
2022-08-24T05:34:27.565Z,100.00
2022-08-24T05:37:29.963Z,100.00
2022-08-24T05:40:50.719Z,100.00
2022-08-24T05:43:56.671Z,98.52
2022-08-24T05:46:59.543Z,99.65
2022-08-24T05:50:02.040Z,98.80
2022-08-24T05:53:04.755Z,100.00
2022-08-24T05:56:09.599Z,99.95
2022-08-24T05:59:13.909Z,100.00
2022-08-24T06:02:17.595Z,100.00
2022-08-24T06:05:21.319Z,100.00
2022-08-24T06:08:23.908Z,100.00
2022-08-24T06:11:30.884Z,100.00
2022-08-24T06:14:35.945Z,100.00
2022-08-24T06:17:39.046Z,100.00
2022-08-24T06:20:42.530Z,100.00
2022-08-24T06:23:45.070Z,100.00
2022-08-24T06:27:05.336Z,100.00
2022-08-24T06:30:15.350Z,100.00
2022-08-24T06:33:36.095Z,100.00
2022-08-24T06:36:39.252Z,100.00
2022-08-24T06:39:42.245Z,100.00
2022-08-24T06:42:45.343Z,99.42
2022-08-24T06:46:03.921Z,98.58
2022-08-24T06:49:11.169Z,98.25
2022-08-24T06:52:13.064Z,98.73
2022-08-24T06:55:14.847Z,97.59
2022-08-24T06:58:18.225Z,97.93
2022-08-24T07:01:23.493Z,97.53
2022-08-24T07:04:28.227Z,96.54
2022-08-24T07:07:49.121Z,94.69
2022-08-24T07:10:53.335Z,94.22
2022-08-24T07:13:55.222Z,92.29
2022-08-24T07:16:58.860Z,90.81
2022-08-24T07:20:00.802Z,90.29
2022-08-24T07:23:41.216Z,89.95
2022-08-24T07:26:44.649Z,88.22
2022-08-24T07:29:56.267Z,87.93
2022-08-24T07:33:11.407Z,87.42
2022-08-24T07:36:21.907Z,86.65
2022-08-24T07:39:24.730Z,85.35
2022-08-24T07:42:31.320Z,84.25
2022-08-24T07:45:35.844Z,83.80
2022-08-24T07:48:37.859Z,82.59
2022-08-24T07:51:43.756Z,81.47
2022-08-24T07:54:49.525Z,81.78
2022-08-24T07:57:52.359Z,81.26
2022-08-24T08:00:54.489Z,80.35
2022-08-24T08:03:56.220Z,80.00
2022-08-24T08:07:00.720Z,79.56
2022-08-24T08:10:05.093Z,78.80
2022-08-24T08:13:08.505Z,78.00
2022-08-24T08:16:11.661Z,77.86
2022-08-24T08:19:13.827Z,76.90
2022-08-24T08:22:36.942Z,77.16
2022-08-24T08:25:58.099Z,76.41
2022-08-24T08:29:13.714Z,76.18
2022-08-24T08:32:17.471Z,76.54
2022-08-24T08:35:22.870Z,75.37
2022-08-24T08:38:25.403Z,74.29
2022-08-24T08:41:57.040Z,72.37
2022-08-24T08:45:15.246Z,71.83
2022-08-24T08:48:44.673Z,70.55
2022-08-24T08:52:05.179Z,69.77
2022-08-24T08:55:38.196Z,68.24
2022-08-24T08:58:57.658Z,66.68
2022-08-24T09:02:27.482Z,66.53
2022-08-24T09:06:07.222Z,65.14
2022-08-24T09:09:35.729Z,63.68
2022-08-24T09:13:22.751Z,63.85
2022-08-24T09:16:47.191Z,63.72
2022-08-24T09:20:07.174Z,62.39
2022-08-24T09:23:10.045Z,60.77
2022-08-24T09:26:33.439Z,59.41
2022-08-24T09:30:03.341Z,60.18
2022-08-24T09:33:27.256Z,59.90
2022-08-24T09:36:53.885Z,59.74
2022-08-24T09:40:20.370Z,57.78
2022-08-24T09:43:42.274Z,58.09
2022-08-24T09:47:24.319Z,56.73
2022-08-24T09:50:44.989Z,57.06
2022-08-24T09:54:20.754Z,56.23
2022-08-24T09:57:59.411Z,56.08
2022-08-24T10:01:26.019Z,52.87
2022-08-24T10:05:02.451Z,53.39
2022-08-24T10:08:41.874Z,54.29
2022-08-24T10:12:16.134Z,52.72
2022-08-24T10:15:32.435Z,51.61
2022-08-24T10:18:35.344Z,52.58
2022-08-24T10:22:14.807Z,51.72
2022-08-24T10:25:50.878Z,49.83
2022-08-24T10:29:33.735Z,50.06
2022-08-24T10:33:09.365Z,49.85
2022-08-24T10:36:26.548Z,50.06
2022-08-24T10:39:53.531Z,49.73
2022-08-24T10:43:39.944Z,49.58
2022-08-24T10:46:59.830Z,48.56
2022-08-24T10:50:10.664Z,48.02
2022-08-24T10:53:22.839Z,48.44
2022-08-24T10:56:45.677Z,49.36
2022-08-24T11:00:03.045Z,48.38
2022-08-24T11:03:13.623Z,48.02
2022-08-24T11:06:18.505Z,46.91
2022-08-24T11:09:20.208Z,46.92
2022-08-24T11:12:32.655Z,46.49
2022-08-24T11:15:41.340Z,45.46
2022-08-24T11:18:48.538Z,46.17
2022-08-24T11:21:53.184Z,45.38
2022-08-24T11:25:05.384Z,45.15
2022-08-24T11:28:30.692Z,43.81
2022-08-24T11:31:38.633Z,42.87
2022-08-24T11:34:46.839Z,43.02
2022-08-24T11:37:51.538Z,42.65
2022-08-24T11:41:15.284Z,42.30
2022-08-24T11:44:55.085Z,41.54
2022-08-24T11:48:16.533Z,40.56
2022-08-24T11:51:36.972Z,40.67
2022-08-24T11:54:58.219Z,42.48
2022-08-24T11:58:07.079Z,42.04
2022-08-24T12:01:26.194Z,41.52
2022-08-24T12:04:44.827Z,40.65
2022-08-24T12:07:53.000Z,40.84
2022-08-24T12:11:24.265Z,40.25
2022-08-24T12:14:37.173Z,41.65
2022-08-24T12:18:05.134Z,40.24
2022-08-24T12:21:12.690Z,39.56
2022-08-24T12:24:25.567Z,39.17
2022-08-24T12:27:33.973Z,38.51
2022-08-24T12:30:37.313Z,38.23
2022-08-24T12:33:46.284Z,37.46
2022-08-24T12:37:16.292Z,37.54
2022-08-24T12:40:40.158Z,37.53
2022-08-24T12:43:52.513Z,38.32
2022-08-24T12:46:54.850Z,37.08
2022-08-24T12:50:28.751Z,38.08
2022-08-24T12:54:03.647Z,36.98
2022-08-24T12:57:25.364Z,36.38
2022-08-24T13:00:52.575Z,36.73
2022-08-24T13:04:31.559Z,35.23
2022-08-24T13:07:46.887Z,35.94
2022-08-24T13:11:05.974Z,35.93
2022-08-24T13:14:27.401Z,35.50
2022-08-24T13:17:42.231Z,36.13
2022-08-24T13:20:44.197Z,34.72
2022-08-24T13:23:46.312Z,34.61
2022-08-24T13:26:48.072Z,35.67
2022-08-24T13:29:54.780Z,35.55
2022-08-24T13:33:03.872Z,35.10
2022-08-24T13:36:28.705Z,34.26
2022-08-24T13:39:54.526Z,35.03
2022-08-24T13:43:19.220Z,34.64
2022-08-24T13:46:45.604Z,33.62
2022-08-24T13:50:14.746Z,33.74
2022-08-24T13:53:26.332Z,32.98
2022-08-24T13:56:44.390Z,32.57
2022-08-24T14:00:01.607Z,32.29
2022-08-24T14:03:24.970Z,32.75
2022-08-24T14:06:48.830Z,33.16
2022-08-24T14:10:32.411Z,31.91
2022-08-24T14:14:08.286Z,32.29
2022-08-24T14:17:43.529Z,31.94
2022-08-24T14:21:35.035Z,32.22
2022-08-24T14:25:21.410Z,31.68
2022-08-24T14:28:44.218Z,31.75
2022-08-24T14:31:58.823Z,32.19
2022-08-24T14:35:23.399Z,31.78
2022-08-24T14:38:38.080Z,31.56
2022-08-24T14:41:55.187Z,31.53
2022-08-24T14:45:26.719Z,31.63
2022-08-24T14:48:50.374Z,30.32
2022-08-24T14:52:35.624Z,31.53
2022-08-24T14:55:45.498Z,31.72
2022-08-24T14:59:12.267Z,30.80
2022-08-24T15:02:26.252Z,31.46
2022-08-24T15:05:36.884Z,31.52
2022-08-24T15:08:43.153Z,31.32
2022-08-24T15:11:47.458Z,30.82
2022-08-24T15:15:00.154Z,32.35
2022-08-24T15:18:13.632Z,30.34
2022-08-24T15:21:55.604Z,30.73
2022-08-24T15:25:38.244Z,30.85
2022-08-24T15:28:56.324Z,30.89
2022-08-24T15:32:13.567Z,31.67
2022-08-24T15:35:28.138Z,30.76
2022-08-24T15:38:30.222Z,32.09
2022-08-24T15:41:33.456Z,32.09
2022-08-24T15:44:36.984Z,32.17
2022-08-24T15:47:46.481Z,31.56
2022-08-24T15:50:51.509Z,30.98
2022-08-24T15:53:53.825Z,31.21
2022-08-24T15:57:27.370Z,32.00
2022-08-24T16:00:56.414Z,32.29
2022-08-24T16:03:59.904Z,32.74
2022-08-24T16:07:01.714Z,31.68
2022-08-24T16:10:12.879Z,32.18
2022-08-24T16:13:23.341Z,32.95
2022-08-24T16:16:56.450Z,32.00
2022-08-24T16:20:02.658Z,33.01
2022-08-24T16:23:12.965Z,31.98
2022-08-24T16:26:46.957Z,31.88
2022-08-24T16:29:53.583Z,32.86
2022-08-24T16:32:57.738Z,33.67
2022-08-24T16:36:03.290Z,32.46
2022-08-24T16:39:05.892Z,33.16
2022-08-24T16:42:28.971Z,33.13
2022-08-24T16:45:35.729Z,32.84
2022-08-24T16:48:38.415Z,32.98
2022-08-24T16:51:45.185Z,33.32
2022-08-24T16:54:48.224Z,33.03
2022-08-24T16:57:50.605Z,33.96
2022-08-24T17:00:53.159Z,34.03
2022-08-24T17:03:55.506Z,32.84
2022-08-24T17:06:58.012Z,34.11
2022-08-24T17:10:03.515Z,34.43
2022-08-24T17:13:05.972Z,34.45
2022-08-24T17:16:09.699Z,35.69
2022-08-24T17:19:14.727Z,35.14
2022-08-24T17:22:19.521Z,35.75
2022-08-24T17:25:23.192Z,36.23
2022-08-24T17:28:25.285Z,36.73
2022-08-24T17:31:29.100Z,36.28
2022-08-24T17:34:32.128Z,36.42
2022-08-24T17:37:34.446Z,37.25
2022-08-24T17:40:36.825Z,37.59
2022-08-24T17:43:39.105Z,38.25
2022-08-24T17:46:41.593Z,38.34
2022-08-24T17:49:43.659Z,38.97
2022-08-24T17:52:46.120Z,39.67
2022-08-24T17:55:48.283Z,40.32
2022-08-24T17:59:09.413Z,40.15
2022-08-24T18:02:12.842Z,41.42
2022-08-24T18:05:15.377Z,42.08
2022-08-24T18:08:17.373Z,42.26
2022-08-24T18:11:22.763Z,43.03
2022-08-24T18:14:29.695Z,43.66
2022-08-24T18:17:45.108Z,44.71
2022-08-24T18:20:47.061Z,45.77
2022-08-24T18:23:50.519Z,46.39
2022-08-24T18:26:52.832Z,48.27
2022-08-24T18:29:57.329Z,48.79
2022-08-24T18:33:01.735Z,49.86
2022-08-24T18:36:03.753Z,51.68
2022-08-24T18:39:07.289Z,52.78
2022-08-24T18:42:11.909Z,54.80
2022-08-24T18:45:13.849Z,53.96
2022-08-24T18:48:15.901Z,53.89
2022-08-24T18:51:20.380Z,55.38
2022-08-24T18:54:26.485Z,55.64
2022-08-24T18:57:28.813Z,53.86
2022-08-24T19:00:30.641Z,54.10
2022-08-24T19:03:33.779Z,53.81
2022-08-24T19:06:35.513Z,52.90
2022-08-24T19:09:37.459Z,52.79
2022-08-24T19:12:46.913Z,53.45
2022-08-24T19:15:49.663Z,52.66
2022-08-24T19:18:52.062Z,52.97
2022-08-24T19:21:54.329Z,53.06
2022-08-24T19:24:57.681Z,54.99
2022-08-24T19:27:59.341Z,54.51
2022-08-24T19:31:05.338Z,54.35
2022-08-24T19:34:07.653Z,54.48
2022-08-24T19:37:10.092Z,54.58
2022-08-24T19:40:12.129Z,55.47
2022-08-24T19:43:14.924Z,55.84
2022-08-24T19:46:18.076Z,57.48
2022-08-24T19:49:19.779Z,57.64
2022-08-24T19:52:21.575Z,58.13
2022-08-24T19:55:23.376Z,59.07
2022-08-24T19:58:30.134Z,59.82
2022-08-24T20:01:34.843Z,59.68
2022-08-24T20:04:36.824Z,60.98
2022-08-24T20:07:38.945Z,61.10
2022-08-24T20:10:41.107Z,60.98
2022-08-24T20:13:43.624Z,61.83
2022-08-24T20:16:46.194Z,63.74
2022-08-24T20:19:48.059Z,64.25
2022-08-24T20:22:50.203Z,63.46
2022-08-24T20:25:52.276Z,62.93
2022-08-24T20:28:55.858Z,62.88
2022-08-24T20:32:02.415Z,64.34
2022-08-24T20:35:05.322Z,63.50
2022-08-24T20:38:07.996Z,65.31
2022-08-24T20:41:11.400Z,64.50
2022-08-24T20:44:13.282Z,66.03
2022-08-24T20:47:15.912Z,66.34
2022-08-24T20:50:20.915Z,67.19
2022-08-24T20:53:26.803Z,67.14
2022-08-24T20:56:31.982Z,67.91
2022-08-24T20:59:35.178Z,68.61
2022-08-24T21:02:36.900Z,70.15
2022-08-24T21:05:39.246Z,69.92
2022-08-24T21:08:44.909Z,71.15
2022-08-24T21:11:46.836Z,72.87
2022-08-24T21:14:48.493Z,73.57
2022-08-24T21:17:53.916Z,74.88
2022-08-24T21:21:04.447Z,76.12
2022-08-24T21:24:07.322Z,75.98
2022-08-24T21:27:09.929Z,77.61
2022-08-24T21:30:15.030Z,76.18
2022-08-24T21:33:35.042Z,76.92
2022-08-24T21:36:38.526Z,78.96
2022-08-24T21:39:41.051Z,79.00
2022-08-24T21:42:42.917Z,77.92
2022-08-24T21:45:44.961Z,78.57
2022-08-24T21:48:46.943Z,80.00
2022-08-24T21:51:50.181Z,79.73
2022-08-24T21:54:52.658Z,78.63
2022-08-24T21:57:54.501Z,80.30
2022-08-24T22:00:59.215Z,80.48
2022-08-24T22:04:04.170Z,82.23
2022-08-24T22:07:05.977Z,82.00
2022-08-24T22:10:08.976Z,82.62
2022-08-24T22:13:12.684Z,83.00
2022-08-24T22:16:14.647Z,82.27
2022-08-24T22:19:16.724Z,82.50
2022-08-24T22:22:18.444Z,81.41
2022-08-24T22:25:20.160Z,82.50
2022-08-24T22:28:21.905Z,83.90
2022-08-24T22:31:30.034Z,84.00
2022-08-24T22:34:31.847Z,84.38
2022-08-24T22:37:34.129Z,83.94
2022-08-24T22:40:36.727Z,83.86
2022-08-24T22:43:59.079Z,85.48
2022-08-24T22:47:03.570Z,86.25
2022-08-24T22:50:12.536Z,86.12
2022-08-24T22:53:14.254Z,86.22
2022-08-24T22:56:24.669Z,85.16
2022-08-24T22:59:44.306Z,85.64
2022-08-24T23:02:45.945Z,87.36
2022-08-24T23:05:49.339Z,87.67
2022-08-24T23:08:51.162Z,86.15
2022-08-24T23:11:53.259Z,87.64
2022-08-24T23:14:55.736Z,87.86
2022-08-24T23:17:57.344Z,87.08
2022-08-24T23:20:59.237Z,87.32
2022-08-24T23:24:01.272Z,88.37
2022-08-24T23:27:05.471Z,86.70
2022-08-24T23:30:11.206Z,88.34
2022-08-24T23:33:12.881Z,88.83
2022-08-24T23:36:23.708Z,88.46
2022-08-24T23:39:25.708Z,89.80
2022-08-24T23:42:27.784Z,91.00
2022-08-24T23:45:30.576Z,90.56
2022-08-24T23:48:32.994Z,90.61
2022-08-24T23:51:36.571Z,91.20
2022-08-24T23:54:38.324Z,91.67
2022-08-24T23:57:40.551Z,91.93
